sensor_id;sensor_type;location;lat;lon;timestamp;pressure;altitude;pressure_sealevel;temperature;humidity
44441;BME280;30146;52.268;20.944;2023-12-20T00:02:01;99522.70;;;6.85;78.98
44441;BME280;30146;52.268;20.944;2023-12-20T00:04:33;99523.03;;;6.85;78.90
44441;BME280;30146;52.268;20.944;2023-12-20T00:07:04;99519.80;;;6.87;78.99
44441;BME280;30146;52.268;20.944;2023-12-20T00:09:35;99514.54;;;6.87;79.07
44441;BME280;30146;52.268;20.944;2023-12-20T00:12:07;99514.19;;;6.88;79.00
44441;BME280;30146;52.268;20.944;2023-12-20T00:14:38;99512.48;;;6.88;79.00
44441;BME280;30146;52.268;20.944;2023-12-20T00:17:09;99506.55;;;6.88;79.06
44441;BME280;30146;52.268;20.944;2023-12-20T00:19:40;99507.37;;;6.89;79.22
44441;BME280;30146;52.268;20.944;2023-12-20T00:22:11;99504.64;;;6.90;79.14
44441;BME280;30146;52.268;20.944;2023-12-20T00:24:42;99505.50;;;6.91;79.21
44441;BME280;30146;52.268;20.944;2023-12-20T00:27:13;99507.54;;;6.90;78.96
44441;BME280;30146;52.268;20.944;2023-12-20T00:29:44;99505.17;;;6.89;78.99
44441;BME280;30146;52.268;20.944;2023-12-20T00:32:17;99503.30;;;6.89;79.09
44441;BME280;30146;52.268;20.944;2023-12-20T00:34:49;99500.92;;;6.88;78.90
44441;BME280;30146;52.268;20.944;2023-12-20T00:37:20;99496.52;;;6.87;79.13
44441;BME280;30146;52.268;20.944;2023-12-20T00:39:50;99496.52;;;6.88;79.24
44441;BME280;30146;52.268;20.944;2023-12-20T00:42:21;99495.65;;;6.90;79.35
44441;BME280;30146;52.268;20.944;2023-12-20T00:44:53;99491.05;;;6.92;79.41
44441;BME280;30146;52.268;20.944;2023-12-20T00:47:23;99489.17;;;6.92;79.35
44441;BME280;30146;52.268;20.944;2023-12-20T00:49:54;99486.61;;;6.94;79.34
44441;BME280;30146;52.268;20.944;2023-12-20T00:52:25;99486.60;;;6.95;79.32
44441;BME280;30146;52.268;20.944;2023-12-20T00:54:56;99485.41;;;6.95;79.20
44441;BME280;30146;52.268;20.944;2023-12-20T00:57:27;99480.65;;;6.95;79.41
44441;BME280;30146;52.268;20.944;2023-12-20T00:59:59;99478.78;;;6.96;79.35
44441;BME280;30146;52.268;20.944;2023-12-20T01:02:30;99481.98;;;6.99;79.45
44441;BME280;30146;52.268;20.944;2023-12-20T01:05:01;99478.41;;;7.00;79.42
44441;BME280;30146;52.268;20.944;2023-12-20T01:07:32;99479.42;;;7.00;79.34
44441;BME280;30146;52.268;20.944;2023-12-20T01:10:04;99481.28;;;7.01;79.36
44441;BME280;30146;52.268;20.944;2023-12-20T01:12:35;99482.81;;;7.02;79.38
44441;BME280;30146;52.268;20.944;2023-12-20T01:15:08;99475.14;;;7.03;79.36
44441;BME280;30146;52.268;20.944;2023-12-20T01:17:39;99474.29;;;7.04;79.61
44441;BME280;30146;52.268;20.944;2023-12-20T01:20:11;99476.82;;;7.06;79.44
44441;BME280;30146;52.268;20.944;2023-12-20T01:22:43;99476.31;;;7.07;79.38
44441;BME280;30146;52.268;20.944;2023-12-20T01:25:15;99474.09;;;7.08;79.44
44441;BME280;30146;52.268;20.944;2023-12-20T01:27:48;99464.21;;;7.08;79.54
44441;BME280;30146;52.268;20.944;2023-12-20T01:30:19;99459.45;;;7.09;79.48
44441;BME280;30146;52.268;20.944;2023-12-20T01:32:51;99465.05;;;7.11;79.48
44441;BME280;30146;52.268;20.944;2023-12-20T01:35:22;99458.42;;;7.10;79.39
44441;BME280;30146;52.268;20.944;2023-12-20T01:37:53;99454.01;;;7.10;79.32
44441;BME280;30146;52.268;20.944;2023-12-20T01:40:26;99446.86;;;7.11;79.34
44441;BME280;30146;52.268;20.944;2023-12-20T01:43:06;99448.23;;;7.10;79.32
44441;BME280;30146;52.268;20.944;2023-12-20T01:45:37;99454.52;;;7.09;79.50
44441;BME280;30146;52.268;20.944;2023-12-20T01:48:09;99456.73;;;7.09;79.45
44441;BME280;30146;52.268;20.944;2023-12-20T01:50:41;99454.70;;;7.09;79.31
44441;BME280;30146;52.268;20.944;2023-12-20T01:53:15;99450.81;;;7.07;79.29
44441;BME280;30146;52.268;20.944;2023-12-20T01:55:48;99448.62;;;7.06;79.34
44441;BME280;30146;52.268;20.944;2023-12-20T01:58:20;99447.08;;;7.06;79.40
44441;BME280;30146;52.268;20.944;2023-12-20T02:00:53;99440.95;;;7.06;79.56
44441;BME280;30146;52.268;20.944;2023-12-20T02:03:25;99437.55;;;7.09;79.59
44441;BME280;30146;52.268;20.944;2023-12-20T02:05:56;99440.58;;;7.10;79.55
44441;BME280;30146;52.268;20.944;2023-12-20T02:08:28;99441.92;;;7.13;79.60
44441;BME280;30146;52.268;20.944;2023-12-20T02:10:59;99438.35;;;7.14;79.53
44441;BME280;30146;52.268;20.944;2023-12-20T02:13:31;99435.77;;;7.16;79.55
44441;BME280;30146;52.268;20.944;2023-12-20T02:16:02;99431.17;;;7.17;79.45
44441;BME280;30146;52.268;20.944;2023-12-20T02:18:33;99428.96;;;7.17;79.46
44441;BME280;30146;52.268;20.944;2023-12-20T02:21:07;99425.73;;;7.17;79.48
44441;BME280;30146;52.268;20.944;2023-12-20T02:23:38;99424.38;;;7.17;79.51
44441;BME280;30146;52.268;20.944;2023-12-20T02:26:10;99420.45;;;7.18;79.42
44441;BME280;30146;52.268;20.944;2023-12-20T02:28:43;99422.99;;;7.19;79.36
44441;BME280;30146;52.268;20.944;2023-12-20T02:31:15;99421.80;;;7.19;79.46
44441;BME280;30146;52.268;20.944;2023-12-20T02:33:46;99412.27;;;7.19;79.51
44441;BME280;30146;52.268;20.944;2023-12-20T02:36:17;99400.38;;;7.20;79.34
44441;BME280;30146;52.268;20.944;2023-12-20T02:38:47;99400.38;;;7.22;79.43
44441;BME280;30146;52.268;20.944;2023-12-20T02:41:21;99400.34;;;7.23;79.56
44441;BME280;30146;52.268;20.944;2023-12-20T02:43:52;99393.20;;;7.24;79.48
44441;BME280;30146;52.268;20.944;2023-12-20T02:46:47;99389.63;;;7.24;79.34
44441;BME280;30146;52.268;20.944;2023-12-20T02:49:38;99398.81;;;7.23;79.32
44441;BME280;30146;52.268;20.944;2023-12-20T02:52:09;99398.63;;;7.25;79.33
44441;BME280;30146;52.268;20.944;2023-12-20T02:54:40;99397.07;;;7.27;79.21
44441;BME280;30146;52.268;20.944;2023-12-20T02:57:11;99394.84;;;7.29;79.37
44441;BME280;30146;52.268;20.944;2023-12-20T02:59:42;99396.16;;;7.32;79.29
44441;BME280;30146;52.268;20.944;2023-12-20T03:03:05;99399.69;;;7.35;79.51
44441;BME280;30146;52.268;20.944;2023-12-20T03:05:36;99396.27;;;7.38;79.52
44441;BME280;30146;52.268;20.944;2023-12-20T03:08:53;99390.61;;;7.41;79.47
44441;BME280;30146;52.268;20.944;2023-12-20T03:11:27;99393.14;;;7.43;79.21
44441;BME280;30146;52.268;20.944;2023-12-20T03:13:58;99389.22;;;7.44;79.24
44441;BME280;30146;52.268;20.944;2023-12-20T03:16:29;99388.89;;;7.44;79.13
44441;BME280;30146;52.268;20.944;2023-12-20T03:19:09;99381.08;;;7.44;79.12
44441;BME280;30146;52.268;20.944;2023-12-20T03:21:40;99375.45;;;7.44;79.13
44441;BME280;30146;52.268;20.944;2023-12-20T03:24:13;99387.67;;;7.45;79.04
44441;BME280;30146;52.268;20.944;2023-12-20T03:26:44;99394.66;;;7.44;79.01
44441;BME280;30146;52.268;20.944;2023-12-20T03:29:15;99391.27;;;7.42;79.03
44441;BME280;30146;52.268;20.944;2023-12-20T03:31:46;99389.44;;;7.41;79.03
44441;BME280;30146;52.268;20.944;2023-12-20T03:34:17;99382.11;;;7.41;79.03
44441;BME280;30146;52.268;20.944;2023-12-20T03:36:49;99377.52;;;7.41;78.98
44441;BME280;30146;52.268;20.944;2023-12-20T03:39:20;99382.80;;;7.42;79.14
44441;BME280;30146;52.268;20.944;2023-12-20T03:41:52;99375.46;;;7.43;79.19
44441;BME280;30146;52.268;20.944;2023-12-20T03:44:22;99370.88;;;7.42;79.21
44441;BME280;30146;52.268;20.944;2023-12-20T03:46:53;99376.98;;;7.44;79.29
44441;BME280;30146;52.268;20.944;2023-12-20T03:49:26;99373.92;;;7.44;79.20
44441;BME280;30146;52.268;20.944;2023-12-20T03:51:57;99375.96;;;7.44;79.07
44441;BME280;30146;52.268;20.944;2023-12-20T03:54:28;99378.86;;;7.44;79.14
44441;BME280;30146;52.268;20.944;2023-12-20T03:56:59;99376.98;;;7.44;79.28
44441;BME280;30146;52.268;20.944;2023-12-20T03:59:36;99372.91;;;7.44;79.14
44441;BME280;30146;52.268;20.944;2023-12-20T04:02:07;99366.61;;;7.44;78.94
44441;BME280;30146;52.268;20.944;2023-12-20T04:04:38;99360.15;;;7.44;79.03
44441;BME280;30146;52.268;20.944;2023-12-20T04:07:09;99357.77;;;7.44;79.13
44441;BME280;30146;52.268;20.944;2023-12-20T04:09:41;99371.04;;;7.44;79.05
44441;BME280;30146;52.268;20.944;2023-12-20T04:12:12;99371.89;;;7.44;79.07
44441;BME280;30146;52.268;20.944;2023-12-20T04:14:43;99365.25;;;7.44;79.05
44441;BME280;30146;52.268;20.944;2023-12-20T04:17:14;99364.55;;;7.44;79.08
44441;BME280;30146;52.268;20.944;2023-12-20T04:19:46;99371.88;;;7.44;78.97
44441;BME280;30146;52.268;20.944;2023-12-20T04:22:18;99374.95;;;7.44;79.07
44441;BME280;30146;52.268;20.944;2023-12-20T04:24:49;99373.08;;;7.43;79.08
44441;BME280;30146;52.268;20.944;2023-12-20T04:27:21;99367.48;;;7.43;79.08
44441;BME280;30146;52.268;20.944;2023-12-20T04:29:52;99364.92;;;7.42;78.93
44441;BME280;30146;52.268;20.944;2023-12-20T04:32:24;99370.88;;;7.42;78.90
44441;BME280;30146;52.268;20.944;2023-12-20T04:34:55;99366.97;;;7.42;78.84
44441;BME280;30146;52.268;20.944;2023-12-20T04:37:26;99360.88;;;7.40;78.83
44441;BME280;30146;52.268;20.944;2023-12-20T04:39:57;99365.80;;;7.41;78.86
44441;BME280;30146;52.268;20.944;2023-12-20T04:42:29;99372.62;;;7.40;78.82
44441;BME280;30146;52.268;20.944;2023-12-20T04:45:00;99375.69;;;7.39;78.84
44441;BME280;30146;52.268;20.944;2023-12-20T04:47:32;99376.52;;;7.39;78.91
44441;BME280;30146;52.268;20.944;2023-12-20T04:50:04;99375.15;;;7.41;79.00
44441;BME280;30146;52.268;20.944;2023-12-20T04:52:36;99371.40;;;7.41;78.99
44441;BME280;30146;52.268;20.944;2023-12-20T04:55:08;99375.98;;;7.42;78.94
44441;BME280;30146;52.268;20.944;2023-12-20T04:57:39;99378.36;;;7.42;78.99
44441;BME280;30146;52.268;20.944;2023-12-20T05:00:11;99370.72;;;7.42;79.04
44441;BME280;30146;52.268;20.944;2023-12-20T05:02:47;99371.55;;;7.43;78.97
44441;BME280;30146;52.268;20.944;2023-12-20T05:05:20;99367.80;;;7.43;78.96
44441;BME280;30146;52.268;20.944;2023-12-20T05:07:52;99358.29;;;7.44;79.02
44441;BME280;30146;52.268;20.944;2023-12-20T05:10:26;99355.72;;;7.45;79.03
44441;BME280;30146;52.268;20.944;2023-12-20T05:12:57;99359.62;;;7.45;79.01
44441;BME280;30146;52.268;20.944;2023-12-20T05:15:28;99357.75;;;7.44;78.83
44441;BME280;30146;52.268;20.944;2023-12-20T05:18:01;99349.27;;;7.44;79.01
44441;BME280;30146;52.268;20.944;2023-12-20T05:20:32;99344.16;;;7.44;78.84
44441;BME280;30146;52.268;20.944;2023-12-20T05:23:03;99347.05;;;7.44;78.93
44441;BME280;30146;52.268;20.944;2023-12-20T05:28:36;99348.41;;;7.45;78.87
44441;BME280;30146;52.268;20.944;2023-12-20T05:31:08;99347.56;;;7.44;78.81
44441;BME280;30146;52.268;20.944;2023-12-20T05:33:39;99346.70;;;7.45;78.89
44441;BME280;30146;52.268;20.944;2023-12-20T05:36:30;99346.03;;;7.45;78.79
44441;BME280;30146;52.268;20.944;2023-12-20T05:39:01;99342.99;;;7.43;78.70
44441;BME280;30146;52.268;20.944;2023-12-20T05:41:37;99340.45;;;7.42;78.80
44441;BME280;30146;52.268;20.944;2023-12-20T05:44:13;99344.53;;;7.42;78.80
44441;BME280;30146;52.268;20.944;2023-12-20T05:46:44;99343.00;;;7.41;78.93
44441;BME280;30146;52.268;20.944;2023-12-20T05:49:23;99341.81;;;7.42;78.86
44441;BME280;30146;52.268;20.944;2023-12-20T05:51:54;99338.58;;;7.42;78.90
44441;BME280;30146;52.268;20.944;2023-12-20T05:54:26;99336.05;;;7.41;78.85
44441;BME280;30146;52.268;20.944;2023-12-20T05:57:00;99335.73;;;7.40;78.88
44441;BME280;30146;52.268;20.944;2023-12-20T05:59:35;99335.89;;;7.40;78.82
44441;BME280;30146;52.268;20.944;2023-12-20T06:02:07;99331.84;;;7.37;78.70
44441;BME280;30146;52.268;20.944;2023-12-20T06:04:38;99333.90;;;7.36;78.83
44441;BME280;30146;52.268;20.944;2023-12-20T06:07:12;99333.75;;;7.34;78.77
44441;BME280;30146;52.268;20.944;2023-12-20T06:09:47;99337.35;;;7.31;78.82
44441;BME280;30146;52.268;20.944;2023-12-20T06:12:18;99346.38;;;7.30;78.86
44441;BME280;30146;52.268;20.944;2023-12-20T06:14:49;99346.58;;;7.28;78.77
44441;BME280;30146;52.268;20.944;2023-12-20T06:17:20;99343.20;;;7.26;78.78
44441;BME280;30146;52.268;20.944;2023-12-20T06:19:51;99341.86;;;7.24;78.96
44441;BME280;30146;52.268;20.944;2023-12-20T06:22:32;99343.08;;;7.22;78.87
44441;BME280;30146;52.268;20.944;2023-12-20T06:25:13;99343.92;;;7.22;79.03
44441;BME280;30146;52.268;20.944;2023-12-20T06:27:46;99346.65;;;7.21;79.01
44441;BME280;30146;52.268;20.944;2023-12-20T06:30:18;99346.48;;;7.21;78.92
44441;BME280;30146;52.268;20.944;2023-12-20T06:32:52;99345.33;;;7.18;79.06
44441;BME280;30146;52.268;20.944;2023-12-20T06:35:23;99347.70;;;7.19;79.25
44441;BME280;30146;52.268;20.944;2023-12-20T06:37:54;99347.00;;;7.20;79.18
44441;BME280;30146;52.268;20.944;2023-12-20T06:40:25;99346.33;;;7.20;79.13
44441;BME280;30146;52.268;20.944;2023-12-20T06:42:56;99346.82;;;7.22;79.16
44441;BME280;30146;52.268;20.944;2023-12-20T06:45:44;99347.15;;;7.22;79.05
44441;BME280;30146;52.268;20.944;2023-12-20T06:48:21;99351.73;;;7.23;78.99
44441;BME280;30146;52.268;20.944;2023-12-20T06:50:52;99353.45;;;7.22;78.90
44441;BME280;30146;52.268;20.944;2023-12-20T06:53:23;99348.36;;;7.21;78.88
44441;BME280;30146;52.268;20.944;2023-12-20T06:55:54;99349.71;;;7.21;78.93
44441;BME280;30146;52.268;20.944;2023-12-20T06:58:26;99347.16;;;7.22;79.00
44441;BME280;30146;52.268;20.944;2023-12-20T07:01:02;99349.71;;;7.22;79.19
44441;BME280;30146;52.268;20.944;2023-12-20T07:03:34;99346.98;;;7.22;79.04
44441;BME280;30146;52.268;20.944;2023-12-20T07:06:05;99341.88;;;7.22;79.01
44441;BME280;30146;52.268;20.944;2023-12-20T07:08:37;99343.56;;;7.23;79.15
44441;BME280;30146;52.268;20.944;2023-12-20T07:11:13;99341.20;;;7.23;79.08
44441;BME280;30146;52.268;20.944;2023-12-20T07:13:44;99341.38;;;7.23;78.94
44441;BME280;30146;52.268;20.944;2023-12-20T07:16:15;99343.57;;;7.23;79.10
44441;BME280;30146;52.268;20.944;2023-12-20T07:18:46;99348.16;;;7.23;78.92
44441;BME280;30146;52.268;20.944;2023-12-20T07:21:18;99349.17;;;7.23;79.21
44441;BME280;30146;52.268;20.944;2023-12-20T07:23:48;99353.58;;;7.25;79.23
44441;BME280;30146;52.268;20.944;2023-12-20T07:26:20;99358.34;;;7.25;79.22
44441;BME280;30146;52.268;20.944;2023-12-20T07:28:51;99360.20;;;7.26;79.12
44441;BME280;30146;52.268;20.944;2023-12-20T07:31:22;99355.80;;;7.24;79.06
44441;BME280;30146;52.268;20.944;2023-12-20T07:33:53;99351.70;;;7.26;79.13
44441;BME280;30146;52.268;20.944;2023-12-20T07:36:25;99354.08;;;7.26;79.05
44441;BME280;30146;52.268;20.944;2023-12-20T07:38:56;99353.23;;;7.26;79.15
44441;BME280;30146;52.268;20.944;2023-12-20T07:41:33;99349.99;;;7.26;79.14
44441;BME280;30146;52.268;20.944;2023-12-20T07:44:05;99346.95;;;7.26;79.18
44441;BME280;30146;52.268;20.944;2023-12-20T07:46:36;99347.44;;;7.27;79.22
44441;BME280;30146;52.268;20.944;2023-12-20T07:49:07;99350.15;;;7.27;79.10
44441;BME280;30146;52.268;20.944;2023-12-20T07:51:42;99350.82;;;7.28;79.13
44441;BME280;30146;52.268;20.944;2023-12-20T07:54:13;99351.33;;;7.29;79.16
44441;BME280;30146;52.268;20.944;2023-12-20T07:56:44;99349.60;;;7.30;79.28
44441;BME280;30146;52.268;20.944;2023-12-20T07:59:15;99343.30;;;7.32;79.24
44441;BME280;30146;52.268;20.944;2023-12-20T08:01:58;99341.76;;;7.33;79.22
44441;BME280;30146;52.268;20.944;2023-12-20T08:04:37;99341.73;;;7.34;79.23
44441;BME280;30146;52.268;20.944;2023-12-20T08:07:08;99346.15;;;7.35;79.28
44441;BME280;30146;52.268;20.944;2023-12-20T08:09:39;99345.83;;;7.34;79.01
44441;BME280;30146;52.268;20.944;2023-12-20T08:12:10;99347.34;;;7.35;79.07
44441;BME280;30146;52.268;20.944;2023-12-20T08:14:47;99345.98;;;7.35;79.18
44441;BME280;30146;52.268;20.944;2023-12-20T08:17:18;99343.75;;;7.37;79.36
44441;BME280;30146;52.268;20.944;2023-12-20T08:19:50;99343.39;;;7.38;79.29
44441;BME280;30146;52.268;20.944;2023-12-20T08:22:22;99342.52;;;7.40;79.28
44441;BME280;30146;52.268;20.944;2023-12-20T08:24:53;99343.00;;;7.41;79.21
44441;BME280;30146;52.268;20.944;2023-12-20T08:27:24;99340.95;;;7.42;79.06
44441;BME280;30146;52.268;20.944;2023-12-20T08:30:02;99336.73;;;7.41;78.95
44441;BME280;30146;52.268;20.944;2023-12-20T08:32:33;99336.92;;;7.39;78.88
44441;BME280;30146;52.268;20.944;2023-12-20T08:35:06;99333.52;;;7.39;78.94
44441;BME280;30146;52.268;20.944;2023-12-20T08:37:51;99336.42;;;7.38;78.81
44441;BME280;30146;52.268;20.944;2023-12-20T08:40:22;99334.40;;;7.38;78.91
44441;BME280;30146;52.268;20.944;2023-12-20T08:42:53;99335.06;;;7.37;79.10
44441;BME280;30146;52.268;20.944;2023-12-20T08:45:26;99334.53;;;7.40;79.08
44441;BME280;30146;52.268;20.944;2023-12-20T08:47:58;99332.31;;;7.40;78.94
44441;BME280;30146;52.268;20.944;2023-12-20T08:50:32;99334.70;;;7.39;78.95
44441;BME280;30146;52.268;20.944;2023-12-20T08:53:04;99333.86;;;7.39;78.89
44441;BME280;30146;52.268;20.944;2023-12-20T08:55:42;99333.87;;;7.38;79.01
44441;BME280;30146;52.268;20.944;2023-12-20T08:58:13;99336.27;;;7.37;79.04
44441;BME280;30146;52.268;20.944;2023-12-20T09:00:44;99333.90;;;7.37;78.99
44441;BME280;30146;52.268;20.944;2023-12-20T09:03:16;99332.52;;;7.38;78.90
44441;BME280;30146;52.268;20.944;2023-12-20T09:05:51;99332.02;;;7.37;78.97
44441;BME280;30146;52.268;20.944;2023-12-20T09:08:22;99324.22;;;7.35;78.83
44441;BME280;30146;52.268;20.944;2023-12-20T09:10:53;99319.64;;;7.34;78.85
44441;BME280;30146;52.268;20.944;2023-12-20T09:13:25;99318.96;;;7.33;78.83
44441;BME280;30146;52.268;20.944;2023-12-20T09:15:58;99316.77;;;7.32;78.92
44441;BME280;30146;52.268;20.944;2023-12-20T09:18:36;99315.59;;;7.32;78.98
44441;BME280;30146;52.268;20.944;2023-12-20T09:21:07;99311.17;;;7.31;78.86
44441;BME280;30146;52.268;20.944;2023-12-20T09:23:38;99307.45;;;7.30;78.95
44441;BME280;30146;52.268;20.944;2023-12-20T09:26:09;99303.88;;;7.30;78.90
44441;BME280;30146;52.268;20.944;2023-12-20T09:28:48;99304.54;;;7.31;78.94
44441;BME280;30146;52.268;20.944;2023-12-20T09:31:19;99299.61;;;7.31;78.97
44441;BME280;30146;52.268;20.944;2023-12-20T09:33:50;99295.20;;;7.31;78.98
44441;BME280;30146;52.268;20.944;2023-12-20T09:36:22;99294.02;;;7.29;78.84
44441;BME280;30146;52.268;20.944;2023-12-20T09:38:55;99295.89;;;7.30;78.92
44441;BME280;30146;52.268;20.944;2023-12-20T09:41:27;99290.30;;;7.28;78.91
44441;BME280;30146;52.268;20.944;2023-12-20T09:44:02;99294.74;;;7.27;78.95
44441;BME280;30146;52.268;20.944;2023-12-20T09:46:34;99291.52;;;7.27;78.99
44441;BME280;30146;52.268;20.944;2023-12-20T09:49:06;99291.85;;;7.27;79.10
44441;BME280;30146;52.268;20.944;2023-12-20T09:51:37;99286.39;;;7.29;79.21
44441;BME280;30146;52.268;20.944;2023-12-20T09:54:09;99286.88;;;7.30;79.12
44441;BME280;30146;52.268;20.944;2023-12-20T09:56:45;99284.34;;;7.30;79.06
44441;BME280;30146;52.268;20.944;2023-12-20T09:59:16;99283.98;;;7.30;79.11
44441;BME280;30146;52.268;20.944;2023-12-20T10:01:47;99277.01;;;7.30;79.15
44441;BME280;30146;52.268;20.944;2023-12-20T10:04:19;99278.52;;;7.31;79.16
44441;BME280;30146;52.268;20.944;2023-12-20T10:07:03;99274.79;;;7.32;79.33
44441;BME280;30146;52.268;20.944;2023-12-20T10:09:36;99276.14;;;7.32;79.23
44441;BME280;30146;52.268;20.944;2023-12-20T10:12:29;99278.52;;;7.32;79.17
44441;BME280;30146;52.268;20.944;2023-12-20T10:15:09;99274.83;;;7.29;79.05
44441;BME280;30146;52.268;20.944;2023-12-20T10:17:45;99275.34;;;7.28;79.13
44441;BME280;30146;52.268;20.944;2023-12-20T10:20:33;99271.43;;;7.28;79.01
44441;BME280;30146;52.268;20.944;2023-12-20T10:23:19;99269.07;;;7.27;79.10
44441;BME280;30146;52.268;20.944;2023-12-20T10:26:04;99267.02;;;7.28;79.03
44441;BME280;30146;52.268;20.944;2023-12-20T10:28:36;99263.27;;;7.28;79.15
44441;BME280;30146;52.268;20.944;2023-12-20T10:31:07;99261.59;;;7.28;79.07
44441;BME280;30146;52.268;20.944;2023-12-20T10:33:38;99253.45;;;7.26;78.96
44441;BME280;30146;52.268;20.944;2023-12-20T10:36:10;99248.88;;;7.24;79.07
44441;BME280;30146;52.268;20.944;2023-12-20T10:38:43;99255.00;;;7.25;79.12
44441;BME280;30146;52.268;20.944;2023-12-20T10:41:18;99249.91;;;7.24;78.98
44441;BME280;30146;52.268;20.944;2023-12-20T10:44:01;99250.75;;;7.25;79.21
44441;BME280;30146;52.268;20.944;2023-12-20T10:46:33;99251.94;;;7.25;79.31
44441;BME280;30146;52.268;20.944;2023-12-20T10:49:06;99256.70;;;7.25;79.25
44441;BME280;30146;52.268;20.944;2023-12-20T10:51:38;99258.21;;;7.26;79.34
44441;BME280;30146;52.268;20.944;2023-12-20T10:54:12;99256.82;;;7.28;79.50
44441;BME280;30146;52.268;20.944;2023-12-20T10:56:44;99257.45;;;7.31;79.48
44441;BME280;30146;52.268;20.944;2023-12-20T10:59:18;99255.08;;;7.31;79.29
44441;BME280;30146;52.268;20.944;2023-12-20T11:01:56;99245.40;;;7.30;79.36
44441;BME280;30146;52.268;20.944;2023-12-20T11:08:55;99234.13;;;7.34;79.45
44441;BME280;30146;52.268;20.944;2023-12-20T11:11:46;99223.27;;;7.33;79.38
44441;BME280;30146;52.268;20.944;2023-12-20T11:14:27;99218.14;;;7.35;79.36
44441;BME280;30146;52.268;20.944;2023-12-20T11:17:11;99220.82;;;7.38;79.24
44441;BME280;30146;52.268;20.944;2023-12-20T11:20:05;99221.31;;;7.39;79.28
44441;BME280;30146;52.268;20.944;2023-12-20T11:22:55;99208.58;;;7.38;79.28
44441;BME280;30146;52.268;20.944;2023-12-20T11:25:26;99201.73;;;7.41;79.30
44441;BME280;30146;52.268;20.944;2023-12-20T11:28:14;99204.42;;;7.42;79.26
44441;BME280;30146;52.268;20.944;2023-12-20T11:30:53;99205.94;;;7.44;79.21
44441;BME280;30146;52.268;20.944;2023-12-20T11:33:26;99201.48;;;7.47;79.47
44441;BME280;30146;52.268;20.944;2023-12-20T11:36:00;99195.98;;;7.50;79.33
44441;BME280;30146;52.268;20.944;2023-12-20T11:38:55;99198.19;;;7.51;79.25
44441;BME280;30146;52.268;20.944;2023-12-20T11:41:30;99196.32;;;7.50;79.06
44441;BME280;30146;52.268;20.944;2023-12-20T11:44:05;99190.88;;;7.50;79.17
44441;BME280;30146;52.268;20.944;2023-12-20T11:46:37;99188.15;;;7.51;79.19
44441;BME280;30146;52.268;20.944;2023-12-20T11:49:13;99182.17;;;7.52;79.29
44441;BME280;30146;52.268;20.944;2023-12-20T11:51:45;99181.65;;;7.54;79.27
44441;BME280;30146;52.268;20.944;2023-12-20T11:54:17;99176.71;;;7.54;79.25
44441;BME280;30146;52.268;20.944;2023-12-20T11:56:49;99175.52;;;7.54;79.06
44441;BME280;30146;52.268;20.944;2023-12-20T11:59:20;99169.23;;;7.52;78.89
44441;BME280;30146;52.268;20.944;2023-12-20T12:01:55;99168.12;;;7.48;78.93
44441;BME280;30146;52.268;20.944;2023-12-20T12:04:31;99165.92;;;7.47;78.96
44441;BME280;30146;52.268;20.944;2023-12-20T12:07:07;99168.15;;;7.47;79.03
44441;BME280;30146;52.268;20.944;2023-12-20T12:09:39;99164.56;;;7.47;79.05
44441;BME280;30146;52.268;20.944;2023-12-20T12:12:12;99160.52;;;7.46;79.07
44441;BME280;30146;52.268;20.944;2023-12-20T12:14:45;99165.98;;;7.45;78.90
44441;BME280;30146;52.268;20.944;2023-12-20T12:17:16;99162.10;;;7.42;79.04
44441;BME280;30146;52.268;20.944;2023-12-20T12:19:47;99158.91;;;7.40;78.99
44441;BME280;30146;52.268;20.944;2023-12-20T12:22:21;99161.48;;;7.39;78.84
44441;BME280;30146;52.268;20.944;2023-12-20T12:25:08;99158.29;;;7.36;78.85
44441;BME280;30146;52.268;20.944;2023-12-20T12:27:43;99154.59;;;7.33;78.81
44441;BME280;30146;52.268;20.944;2023-12-20T12:30:17;99159.52;;;7.32;78.89
44441;BME280;30146;52.268;20.944;2023-12-20T12:32:53;99153.61;;;7.30;78.64
44441;BME280;30146;52.268;20.944;2023-12-20T12:35:28;99149.73;;;7.28;78.57
44441;BME280;30146;52.268;20.944;2023-12-20T12:38:00;99144.02;;;7.25;78.35
44441;BME280;30146;52.268;20.944;2023-12-20T12:40:41;99144.40;;;7.21;78.28
44441;BME280;30146;52.268;20.944;2023-12-20T12:43:14;99144.08;;;7.20;78.36
44441;BME280;30146;52.268;20.944;2023-12-20T12:45:45;99147.51;;;7.18;78.47
44441;BME280;30146;52.268;20.944;2023-12-20T12:48:16;99142.77;;;7.17;78.60
44441;BME280;30146;52.268;20.944;2023-12-20T12:50:48;99146.86;;;7.16;78.44
44441;BME280;30146;52.268;20.944;2023-12-20T12:53:22;99148.91;;;7.15;78.47
44441;BME280;30146;52.268;20.944;2023-12-20T12:55:57;99152.15;;;7.14;78.41
44441;BME280;30146;52.268;20.944;2023-12-20T12:58:28;99152.01;;;7.12;78.52
44441;BME280;30146;52.268;20.944;2023-12-20T13:01:00;99153.23;;;7.10;78.31
44441;BME280;30146;52.268;20.944;2023-12-20T13:03:32;99145.95;;;7.08;78.46
44441;BME280;30146;52.268;20.944;2023-12-20T13:06:05;99139.48;;;7.09;78.47
44441;BME280;30146;52.268;20.944;2023-12-20T13:08:38;99134.59;;;7.06;78.48
44441;BME280;30146;52.268;20.944;2023-12-20T13:11:10;99136.45;;;7.07;78.49
44441;BME280;30146;52.268;20.944;2023-12-20T13:13:40;99139.50;;;7.07;78.51
44441;BME280;30146;52.268;20.944;2023-12-20T13:16:11;99140.69;;;7.08;78.55
44441;BME280;30146;52.268;20.944;2023-12-20T13:22:13;99145.81;;;7.06;78.26
44441;BME280;30146;52.268;20.944;2023-12-20T13:24:49;99143.30;;;7.04;78.23
44441;BME280;30146;52.268;20.944;2023-12-20T13:27:20;99141.95;;;7.02;78.14
44441;BME280;30146;52.268;20.944;2023-12-20T13:29:51;99138.73;;;7.02;78.24
44441;BME280;30146;52.268;20.944;2023-12-20T13:32:22;99136.54;;;7.01;78.24
44441;BME280;30146;52.268;20.944;2023-12-20T13:34:54;99138.22;;;7.02;78.26
44441;BME280;30146;52.268;20.944;2023-12-20T13:37:28;99132.44;;;7.02;78.34
44441;BME280;30146;52.268;20.944;2023-12-20T13:39:59;99126.46;;;7.04;78.37
44441;BME280;30146;52.268;20.944;2023-12-20T13:42:34;99123.39;;;7.05;78.27
44441;BME280;30146;52.268;20.944;2023-12-20T13:45:08;99130.55;;;7.03;78.12